Oshima Airport, Japan

4:01 AM JST on August 22, 2014 (GMT +0900)
Oshima | Change Station
CLOSE
Current Station
Airport
Location: Oshima Airport,
Elevation: 135 ft
Nearby Weather Stations

Elev 135 ft 34.78 °N, 139.36 °E | Updated 11 hours ago

Partly Cloudy
Partly Cloudy
79 °F
Feels Like 79 °F
N
13
Wind Variable Wind from WSW
Gusts mph

Today
High -- | Low -- °F
--% Chance of Precip.
Yesterday
High -- | Low -- °F
Precip. -- in
5:07 AM 6:22 PM
Waning Crescent, 13% visible
Pressure 29.86 in
Visibility 6.2 miles
Clouds Few 1000 ft
Dew Point 75 °F
Humidity 88%
Rainfall 0.00 in
Snow Depth Not available.
UV 1 out of 12
Pollen Not available.
Air Quality Not available.
Flu Activity Not available.
METAR RJTO 210800Z 20018KT 9999 FEW010 28/24 Q1011

More Conditions Fewer Conditions

Pressure 29.86 in
Visibility 6.2 miles
Clouds Few 1000 ft
Dew Point 75 °F
Humidity 88%
Rainfall 0.00 in
Snow Depth Not available.
UV 1 out of 12
Pollen Not available.
Air Quality Not available.
Flu Activity Not available.
METAR RJTO 210800Z 20018KT 9999 FEW010 28/24 Q1011

More Conditions Fewer Conditions

10-Day Weather Forecast

Almanac

Astronomy

Aug. 22, 2014 Rise Set
Actual Time 5:07 AM JST 6:22 PM JST
Civil Twilight 4:41 AM JST 6:49 PM JST
Nautical Twilight 4:09 AM JST 7:20 PM JST
Astronomical Twilight 3:37 AM JST 7:53 PM JST
Moon 2:00 AM JST (8/22) 4:03 PM JST (8/22)
Length of Visible Light 14h 07m
Length of Day
13h 15m
Tomorrow will be 2m 0s shorter.
Waning Crescent, 13% of the Moon is Illuminated
Aug 21
Waning Crescent
Aug 25
New
Sep 2
First Quarter
Sep 8
Full
Sep 15
Last Quarter

Yesterday's Extremes

Country Highs Country Lows

Community

WunderPhotos

Upload Photos

1,746,002 photos uploaded!

WunderBlogs® & News

Nearby

Snow Depth

Not available.

Earthquake Activity

City Distance Mag. Time & Date
No recent earthquake activity has been reported nearby.
Minimum magnitude displayed is 2.5.

Coastal Water Temperatures

Place Temperature
No Stations Reporting

Nearby Weather Stations